Time;durP1;ratioP1;P1;durP2;ratioP2;P2;SDS_P1;SDS_P2;PMS_P1;PMS_P2;Temp;Humidity;BMP_temperature;BMP_pressure;BME280_temperature;BME280_humidity;BME280_pressure;Samples;Min_cycle;Max_cycle;Signal;HPM_P1;HPM_P2
2023/03/01 00:00:48;;;;;;;15.10;7.53;;;;;;;;;;4980067;28;99389;-67
2023/03/01 00:03:14;;;;;;;15.40;7.47;;;;;;;;;;4980469;28;101481;-67
2023/03/01 00:05:47;;;;;;;12.93;7.30;;;;;;;;;;4970912;28;99600;-66
2023/03/01 00:08:13;;;;;;;11.95;7.28;;;;;;;;;;4969702;28;100088;-66
2023/03/01 00:10:39;;;;;;;8.98;6.43;;;;;;;;;;4973945;28;100391;-67
2023/03/01 00:13:05;;;;;;;12.45;6.78;;;;;;;;;;4970861;28;98999;-67
2023/03/01 00:15:32;;;;;;;10.50;7.32;;;;;;;;;;4972009;28;99363;-68
2023/03/01 00:17:58;;;;;;;10.93;7.40;;;;;;;;;;4970301;28;98854;-67
2023/03/01 00:20:24;;;;;;;14.82;7.55;;;;;;;;;;4971179;28;98758;-67
2023/03/01 00:22:51;;;;;;;12.23;7.53;;;;;;;;;;4970981;28;100217;-68
2023/03/01 00:25:17;;;;;;;12.60;7.47;;;;;;;;;;4969725;28;101251;-67
2023/03/01 00:27:43;;;;;;;9.07;6.60;;;;;;;;;;4970481;28;98522;-67
2023/03/01 00:30:10;;;;;;;9.77;7.03;;;;;;;;;;4971285;28;100299;-67
2023/03/01 00:32:36;;;;;;;10.50;6.68;;;;;;;;;;4974115;28;99594;-67
2023/03/01 00:35:03;;;;;;;10.80;7.25;;;;;;;;;;4971191;28;99185;-67
2023/03/01 00:37:29;;;;;;;17.73;7.55;;;;;;;;;;4970054;28;99572;-67
2023/03/01 00:39:55;;;;;;;9.98;6.57;;;;;;;;;;4970812;28;99055;-67
2023/03/01 00:42:22;;;;;;;11.13;7.18;;;;;;;;;;4971149;28;99202;-68
2023/03/01 00:44:48;;;;;;;9.90;7.15;;;;;;;;;;4970472;28;99690;-68
2023/03/01 00:47:14;;;;;;;12.65;6.85;;;;;;;;;;4970365;28;98547;-68
2023/03/01 00:49:41;;;;;;;11.60;7.18;;;;;;;;;;4968523;28;99312;-68
2023/03/01 00:52:07;;;;;;;9.68;7.10;;;;;;;;;;4970230;28;100523;-68
2023/03/01 00:54:33;;;;;;;12.85;6.95;;;;;;;;;;4973586;28;98593;-68
2023/03/01 00:56:59;;;;;;;14.27;8.15;;;;;;;;;;4970328;28;100557;-68
2023/03/01 00:59:26;;;;;;;12.43;6.47;;;;;;;;;;4970165;28;98535;-68
2023/03/01 01:01:52;;;;;;;10.70;6.75;;;;;;;;;;4970445;28;100266;-68
2023/03/01 01:04:18;;;;;;;10.85;7.25;;;;;;;;;;4969484;28;100392;-67
2023/03/01 01:06:45;;;;;;;11.80;6.70;;;;;;;;;;4970529;28;97936;-67
2023/03/01 01:09:16;;;;;;;15.95;7.97;;;;;;;;;;4963013;28;98947;-67
2023/03/01 01:11:47;;;;;;;11.60;8.13;;;;;;;;;;4965335;28;101005;-69
2023/03/01 01:14:13;;;;;;;11.82;7.10;;;;;;;;;;4969935;28;99324;-68
2023/03/01 01:16:39;;;;;;;11.93;7.43;;;;;;;;;;4973295;28;100037;-67
2023/03/01 01:19:06;;;;;;;13.98;7.43;;;;;;;;;;4969385;28;98571;-68
2023/03/01 01:21:33;;;;;;;11.45;8.07;;;;;;;;;;4969772;28;99194;-67
2023/03/01 01:23:59;;;;;;;12.48;7.68;;;;;;;;;;4969519;28;99816;-68
2023/03/01 01:26:27;;;;;;;10.65;7.65;;;;;;;;;;4970061;28;98931;-68
2023/03/01 01:28:54;;;;;;;15.02;8.13;;;;;;;;;;4969891;28;100202;-67
2023/03/01 01:31:23;;;;;;;11.98;7.93;;;;;;;;;;4970119;28;98906;-67
2023/03/01 01:33:50;;;;;;;15.57;8.27;;;;;;;;;;4969744;28;99833;-67
2023/03/01 01:36:16;;;;;;;16.33;8.38;;;;;;;;;;4969752;28;99567;-67
2023/03/01 01:38:42;;;;;;;16.40;9.65;;;;;;;;;;4972896;28;100048;-68
2023/03/01 01:41:11;;;;;;;21.20;9.35;;;;;;;;;;4968934;28;99996;-67
2023/03/01 01:43:40;;;;;;;15.13;8.85;;;;;;;;;;4969825;28;99522;-67
2023/03/01 01:46:14;;;;;;;11.23;8.07;;;;;;;;;;4969942;28;98620;-66
2023/03/01 01:48:44;;;;;;;12.93;8.60;;;;;;;;;;4969893;28;100586;-67
2023/03/01 01:51:16;;;;;;;15.63;8.43;;;;;;;;;;4969699;28;99608;-67
2023/03/01 01:53:44;;;;;;;21.23;7.80;;;;;;;;;;4969348;28;98551;-67
2023/03/01 01:56:11;;;;;;;11.85;8.00;;;;;;;;;;4970907;28;100354;-66
2023/03/01 01:58:38;;;;;;;14.65;8.25;;;;;;;;;;4969359;28;100506;-66
2023/03/01 02:01:05;;;;;;;13.13;8.38;;;;;;;;;;4971310;28;98566;-67
2023/03/01 02:03:36;;;;;;;13.52;8.23;;;;;;;;;;4968309;28;100481;-67
2023/03/01 02:06:05;;;;;;;15.07;8.18;;;;;;;;;;4969699;28;98530;-67
2023/03/01 02:08:33;;;;;;;15.73;9.18;;;;;;;;;;4969506;28;100527;-67
2023/03/01 02:11:00;;;;;;;11.73;7.90;;;;;;;;;;4969870;28;99459;-67
2023/03/01 02:13:27;;;;;;;15.50;8.70;;;;;;;;;;4969342;28;98582;-67
2023/03/01 02:15:53;;;;;;;11.68;8.20;;;;;;;;;;4970626;28;99303;-67
2023/03/01 02:18:21;;;;;;;10.60;7.82;;;;;;;;;;4969793;28;99697;-66
2023/03/01 02:21:05;;;;;;;12.75;8.35;;;;;;;;;;4974089;28;97743;-66
2023/03/01 02:23:32;;;;;;;11.60;7.80;;;;;;;;;;4969943;28;99581;-65
2023/03/01 02:26:04;;;;;;;12.32;8.43;;;;;;;;;;4969886;28;98536;-66
2023/03/01 02:28:31;;;;;;;14.80;8.02;;;;;;;;;;4969554;28;99273;-66
2023/03/01 02:33:43;;;;;;;15.23;9.02;;;;;;;;;;4970030;28;98528;-67
2023/03/01 02:36:13;;;;;;;14.63;8.70;;;;;;;;;;4969828;28;100514;-66
2023/03/01 02:38:40;;;;;;;12.95;8.95;;;;;;;;;;4969587;28;99396;-66
2023/03/01 02:41:07;;;;;;;12.20;7.90;;;;;;;;;;4970210;28;98623;-66
2023/03/01 02:43:34;;;;;;;14.95;8.73;;;;;;;;;;4972961;28;100541;-67
2023/03/01 02:46:26;;;;;;;13.55;8.27;;;;;;;;;;4970698;28;98087;-67
2023/03/01 02:48:54;;;;;;;14.40;8.50;;;;;;;;;;4967071;28;98927;-67
2023/03/01 02:51:26;;;;;;;19.60;9.25;;;;;;;;;;4969546;28;100647;-68
2023/03/01 02:53:59;;;;;;;11.32;8.50;;;;;;;;;;4969345;28;99249;-67
2023/03/01 02:56:25;;;;;;;20.15;9.18;;;;;;;;;;4969954;28;99938;-67
2023/03/01 02:58:52;;;;;;;13.75;9.70;;;;;;;;;;4969310;28;99129;-67
2023/03/01 03:01:18;;;;;;;14.40;8.82;;;;;;;;;;4969631;28;98535;-68
2023/03/01 03:03:45;;;;;;;14.95;9.45;;;;;;;;;;4968043;28;99205;-67
2023/03/01 03:06:12;;;;;;;12.40;9.60;;;;;;;;;;4971580;28;99903;-67
2023/03/01 03:08:38;;;;;;;14.55;9.43;;;;;;;;;;4965757;28;99235;-68
2023/03/01 03:11:05;;;;;;;18.27;9.95;;;;;;;;;;4967610;28;99782;-68
2023/03/01 03:13:32;;;;;;;14.70;9.73;;;;;;;;;;4970373;28;98578;-68
2023/03/01 03:15:58;;;;;;;15.52;9.50;;;;;;;;;;4972574;28;98515;-68
2023/03/01 03:18:27;;;;;;;12.55;9.05;;;;;;;;;;4971164;28;100970;-68
2023/03/01 03:20:54;;;;;;;14.52;9.02;;;;;;;;;;4971976;28;98556;-68
2023/03/01 03:23:21;;;;;;;15.43;9.15;;;;;;;;;;4971135;28;100169;-68
2023/03/01 03:25:48;;;;;;;18.17;9.15;;;;;;;;;;4971616;28;99511;-68
2023/03/01 03:28:15;;;;;;;15.88;9.48;;;;;;;;;;4974017;28;98616;-68
2023/03/01 03:30:42;;;;;;;13.90;8.65;;;;;;;;;;4971405;28;99123;-68
2023/03/01 03:33:12;;;;;;;15.88;8.93;;;;;;;;;;4969462;28;98630;-67
2023/03/01 03:35:41;;;;;;;15.20;9.13;;;;;;;;;;4972135;28;99122;-67
2023/03/01 03:38:15;;;;;;;15.15;9.13;;;;;;;;;;4970681;28;100889;-68
2023/03/01 03:40:43;;;;;;;15.52;8.52;;;;;;;;;;4963541;28;98637;-68
2023/03/01 03:43:10;;;;;;;14.65;8.18;;;;;;;;;;4971376;28;101220;-67
2023/03/01 03:45:37;;;;;;;13.55;8.50;;;;;;;;;;4970681;28;99554;-67
2023/03/01 03:48:04;;;;;;;11.95;8.95;;;;;;;;;;4969029;28;98620;-67
2023/03/01 03:50:31;;;;;;;14.18;8.48;;;;;;;;;;4974629;28;99224;-67
2023/03/01 03:53:00;;;;;;;13.80;9.60;;;;;;;;;;4968636;28;98566;-67
2023/03/01 03:55:30;;;;;;;10.80;7.97;;;;;;;;;;4970759;28;100241;-67
2023/03/01 03:57:57;;;;;;;15.57;8.48;;;;;;;;;;4970924;28;99659;-67
2023/03/01 04:00:23;;;;;;;15.48;8.75;;;;;;;;;;4969991;28;98123;-67
2023/03/01 04:02:50;;;;;;;15.35;8.80;;;;;;;;;;4970057;28;98833;-67
2023/03/01 04:05:18;;;;;;;13.55;8.93;;;;;;;;;;4971016;28;99654;-67
2023/03/01 04:07:45;;;;;;;14.45;8.75;;;;;;;;;;4969905;28;100606;-68
2023/03/01 04:10:13;;;;;;;14.13;8.80;;;;;;;;;;4973665;28;101060;-67
2023/03/01 04:12:39;;;;;;;12.68;8.73;;;;;;;;;;4970116;28;98578;-67
2023/03/01 04:15:12;;;;;;;13.63;8.70;;;;;;;;;;4971026;28;100057;-68
2023/03/01 04:17:42;;;;;;;13.70;8.70;;;;;;;;;;4968911;28;100323;-67
2023/03/01 04:20:10;;;;;;;12.93;8.63;;;;;;;;;;4952498;28;98555;-67
2023/03/01 04:22:38;;;;;;;14.68;8.90;;;;;;;;;;4970161;28;98876;-67
2023/03/01 04:25:06;;;;;;;11.95;8.30;;;;;;;;;;4969156;28;99862;-67
2023/03/01 04:27:35;;;;;;;14.88;8.18;;;;;;;;;;4970338;28;98558;-67
2023/03/01 04:30:03;;;;;;;14.40;8.23;;;;;;;;;;4970285;28;98518;-68
2023/03/01 04:32:29;;;;;;;13.60;8.80;;;;;;;;;;4973567;28;100212;-68
2023/03/01 04:34:56;;;;;;;14.23;8.88;;;;;;;;;;4968329;28;101066;-68
2023/03/01 04:37:22;;;;;;;13.85;9.02;;;;;;;;;;4954119;28;100563;-68
2023/03/01 04:39:48;;;;;;;13.57;9.02;;;;;;;;;;4969312;28;98645;-68
2023/03/01 04:42:14;;;;;;;20.90;9.75;;;;;;;;;;4976876;28;99310;-68
2023/03/01 04:44:41;;;;;;;17.55;9.45;;;;;;;;;;4976401;28;99535;-68
2023/03/01 04:47:07;;;;;;;12.90;8.68;;;;;;;;;;4985269;28;98632;-67
2023/03/01 04:49:33;;;;;;;11.45;8.18;;;;;;;;;;4988793;28;99155;-67
2023/03/01 04:52:01;;;;;;;15.48;8.52;;;;;;;;;;4970925;28;100590;-67
2023/03/01 04:54:28;;;;;;;16.27;9.15;;;;;;;;;;4974704;28;99202;-67
2023/03/01 04:56:54;;;;;;;14.38;9.18;;;;;;;;;;4970705;28;101651;-67
2023/03/01 04:59:22;;;;;;;13.77;8.88;;;;;;;;;;4985334;28;98506;-68
2023/03/01 05:01:49;;;;;;;16.73;9.90;;;;;;;;;;4987909;28;99454;-67
2023/03/01 05:04:15;;;;;;;15.13;9.80;;;;;;;;;;4970909;28;100507;-67
2023/03/01 05:06:42;;;;;;;17.75;9.63;;;;;;;;;;4971358;28;98570;-67
2023/03/01 05:09:08;;;;;;;13.60;9.10;;;;;;;;;;4970459;28;99163;-67
2023/03/01 05:11:35;;;;;;;15.75;10.50;;;;;;;;;;4970951;28;100437;-67
2023/03/01 05:14:02;;;;;;;16.33;10.32;;;;;;;;;;4962571;28;97861;-67
2023/03/01 05:16:30;;;;;;;16.05;9.95;;;;;;;;;;4966282;28;98769;-66
2023/03/01 05:19:00;;;;;;;19.92;10.15;;;;;;;;;;4970938;28;98635;-67
2023/03/01 05:21:26;;;;;;;18.67;10.35;;;;;;;;;;4969796;28;99231;-67
2023/03/01 05:23:52;;;;;;;17.02;10.05;;;;;;;;;;4969749;28;99810;-66
2023/03/01 05:26:21;;;;;;;14.70;10.38;;;;;;;;;;4969755;28;98600;-66
2023/03/01 05:28:58;;;;;;;17.50;10.48;;;;;;;;;;4970077;28;99620;-67
2023/03/01 05:31:24;;;;;;;16.58;10.15;;;;;;;;;;4969689;28;100877;-66
2023/03/01 05:33:50;;;;;;;13.80;9.20;;;;;;;;;;4970352;28;98572;-67
2023/03/01 05:36:18;;;;;;;16.88;10.68;;;;;;;;;;4970427;28;99256;-67
2023/03/01 05:38:44;;;;;;;19.75;10.68;;;;;;;;;;4972959;28;98729;-67
2023/03/01 05:41:14;;;;;;;25.83;11.10;;;;;;;;;;4971698;28;99797;-67
2023/03/01 05:43:43;;;;;;;25.83;12.93;;;;;;;;;;4955470;28;100396;-67
2023/03/01 05:46:12;;;;;;;19.63;11.45;;;;;;;;;;4966985;28;99562;-67
2023/03/01 05:48:38;;;;;;;28.75;12.35;;;;;;;;;;4969903;28;101033;-67
2023/03/01 05:51:06;;;;;;;22.17;12.45;;;;;;;;;;4967449;28;100467;-67
2023/03/01 05:53:32;;;;;;;20.33;11.35;;;;;;;;;;4969978;28;98562;-67
2023/03/01 05:55:58;;;;;;;22.10;12.65;;;;;;;;;;4969757;28;99202;-67
2023/03/01 05:58:24;;;;;;;18.13;11.57;;;;;;;;;;4968515;28;99567;-67
2023/03/01 06:00:51;;;;;;;18.42;12.63;;;;;;;;;;4973061;28;98498;-67
2023/03/01 06:03:20;;;;;;;26.98;12.98;;;;;;;;;;4970011;28;99224;-68
2023/03/01 06:05:46;;;;;;;22.85;13.32;;;;;;;;;;4969657;28;98455;-68
2023/03/01 06:08:13;;;;;;;26.02;12.75;;;;;;;;;;4969433;28;100951;-67
2023/03/01 06:10:40;;;;;;;25.30;11.98;;;;;;;;;;4953147;28;100451;-67
2023/03/01 06:13:06;;;;;;;21.05;12.45;;;;;;;;;;4967609;28;98591;-67
2023/03/01 06:15:33;;;;;;;25.73;12.43;;;;;;;;;;4969466;28;99208;-66
2023/03/01 06:17:59;;;;;;;22.08;11.45;;;;;;;;;;4969211;28;99432;-66
2023/03/01 06:20:26;;;;;;;23.15;12.38;;;;;;;;;;4972513;28;98563;-66
2023/03/01 06:22:53;;;;;;;22.98;11.90;;;;;;;;;;4969078;28;99493;-67
2023/03/01 06:25:21;;;;;;;22.45;12.18;;;;;;;;;;4969228;28;98604;-67
2023/03/01 06:27:48;;;;;;;20.55;10.95;;;;;;;;;;4969825;28;100626;-66
2023/03/01 06:30:15;;;;;;;20.23;11.48;;;;;;;;;;4968098;28;99539;-66
2023/03/01 06:32:42;;;;;;;20.05;12.05;;;;;;;;;;4969013;28;98723;-66
2023/03/01 06:35:12;;;;;;;19.05;12.10;;;;;;;;;;4967419;28;99341;-66
2023/03/01 06:37:39;;;;;;;21.35;12.10;;;;;;;;;;4968954;28;99446;-66
2023/03/01 06:40:11;;;;;;;18.63;11.98;;;;;;;;;;4968814;28;98551;-66
2023/03/01 06:42:38;;;;;;;22.77;12.23;;;;;;;;;;4987309;28;100398;-66
2023/03/01 06:45:05;;;;;;;18.83;11.68;;;;;;;;;;4968167;28;98568;-66
2023/03/01 06:47:32;;;;;;;18.42;11.73;;;;;;;;;;4969454;28;99175;-66
2023/03/01 06:49:59;;;;;;;16.60;10.57;;;;;;;;;;4971474;28;100534;-66
2023/03/01 06:52:26;;;;;;;20.42;12.50;;;;;;;;;;4972092;28;98080;-65
2023/03/01 06:54:52;;;;;;;18.67;12.07;;;;;;;;;;4971401;28;98600;-64
2023/03/01 06:57:18;;;;;;;23.80;12.15;;;;;;;;;;4969888;28;99589;-65
2023/03/01 06:59:46;;;;;;;16.98;12.15;;;;;;;;;;4970082;28;99383;-66
2023/03/01 07:02:13;;;;;;;22.30;12.95;;;;;;;;;;4966034;28;101300;-65
2023/03/01 07:04:39;;;;;;;17.02;12.00;;;;;;;;;;4972024;28;100669;-65
2023/03/01 07:07:05;;;;;;;22.75;12.73;;;;;;;;;;4971434;28;99312;-65
2023/03/01 07:09:32;;;;;;;18.63;12.98;;;;;;;;;;4971869;28;100508;-66
2023/03/01 07:11:58;;;;;;;21.80;12.80;;;;;;;;;;4971352;28;98525;-66
2023/03/01 07:14:25;;;;;;;24.40;13.50;;;;;;;;;;4972119;28;100950;-66
2023/03/01 07:16:52;;;;;;;19.77;13.38;;;;;;;;;;4972359;28;98993;-67
2023/03/01 07:19:18;;;;;;;26.45;12.48;;;;;;;;;;4970971;28;98693;-66
2023/03/01 07:21:45;;;;;;;25.60;13.50;;;;;;;;;;4970279;28;99284;-65
2023/03/01 07:24:11;;;;;;;19.33;12.70;;;;;;;;;;4970455;28;101254;-66
2023/03/01 07:26:37;;;;;;;19.33;12.98;;;;;;;;;;4975065;28;98577;-66
2023/03/01 07:29:04;;;;;;;25.35;13.40;;;;;;;;;;4969130;28;100893;-65
2023/03/01 07:31:31;;;;;;;18.50;12.27;;;;;;;;;;4970810;28;98551;-66
2023/03/01 07:33:57;;;;;;;23.38;12.68;;;;;;;;;;4971698;28;99476;-66
2023/03/01 07:36:24;;;;;;;17.80;12.60;;;;;;;;;;4969981;28;100998;-66
2023/03/01 07:38:50;;;;;;;19.70;12.88;;;;;;;;;;4969841;28;99397;-66
2023/03/01 07:41:17;;;;;;;19.75;13.40;;;;;;;;;;4964564;28;100234;-65
2023/03/01 07:43:43;;;;;;;19.45;12.80;;;;;;;;;;4970775;28;99749;-65
2023/03/01 07:46:10;;;;;;;20.13;13.75;;;;;;;;;;4971134;28;98673;-65
2023/03/01 07:48:36;;;;;;;27.90;14.77;;;;;;;;;;4972001;28;99369;-65
2023/03/01 07:51:04;;;;;;;20.75;13.57;;;;;;;;;;4969339;28;98725;-66
2023/03/01 07:53:33;;;;;;;29.05;14.70;;;;;;;;;;4970149;28;100264;-66
2023/03/01 07:56:01;;;;;;;23.93;14.70;;;;;;;;;;4969871;28;100522;-65
2023/03/01 07:58:27;;;;;;;20.13;12.85;;;;;;;;;;4970083;28;98531;-65
2023/03/01 08:00:53;;;;;;;27.52;14.20;;;;;;;;;;4970823;28;100595;-66
2023/03/01 08:03:20;;;;;;;23.92;14.88;;;;;;;;;;4969803;28;99622;-66
2023/03/01 08:05:46;;;;;;;21.67;13.45;;;;;;;;;;4968333;28;97961;-65
2023/03/01 08:08:12;;;;;;;24.75;14.55;;;;;;;;;;4970826;28;98818;-65
2023/03/01 08:10:38;;;;;;;21.50;14.27;;;;;;;;;;4960110;28;99559;-66
2023/03/01 08:13:05;;;;;;;22.58;14.73;;;;;;;;;;4966211;28;99393;-66
2023/03/01 08:15:31;;;;;;;23.55;13.95;;;;;;;;;;4971916;28;100091;-66
2023/03/01 08:17:57;;;;;;;27.35;13.88;;;;;;;;;;4978485;28;99037;-66
2023/03/01 08:20:23;;;;;;;24.80;14.65;;;;;;;;;;4968819;28;100285;-65
2023/03/01 08:22:50;;;;;;;20.55;13.27;;;;;;;;;;4969464;28;99512;-65
2023/03/01 08:25:16;;;;;;;24.40;14.98;;;;;;;;;;4968830;28;98525;-65
2023/03/01 08:27:43;;;;;;;24.20;14.35;;;;;;;;;;4970830;28;99151;-65
2023/03/01 08:30:09;;;;;;;19.00;13.20;;;;;;;;;;4972580;28;98775;-66
2023/03/01 08:32:37;;;;;;;22.30;14.38;;;;;;;;;;4965921;28;99034;-65
2023/03/01 08:35:03;;;;;;;22.08;13.02;;;;;;;;;;4970043;28;99728;-66
2023/03/01 08:37:33;;;;;;;20.60;12.77;;;;;;;;;;4968312;28;99676;-66
2023/03/01 08:40:00;;;;;;;23.88;12.73;;;;;;;;;;4951093;28;99952;-65
2023/03/01 08:42:26;;;;;;;20.35;11.80;;;;;;;;;;4956168;28;100686;-65
2023/03/01 08:44:52;;;;;;;22.35;12.70;;;;;;;;;;4968833;28;98670;-65
2023/03/01 08:47:19;;;;;;;21.08;12.02;;;;;;;;;;4969348;28;100284;-66
2023/03/01 08:49:45;;;;;;;17.35;11.00;;;;;;;;;;4968532;28;99574;-65
2023/03/01 08:52:11;;;;;;;18.75;12.15;;;;;;;;;;4973982;28;98948;-66
2023/03/01 08:54:37;;;;;;;19.73;11.52;;;;;;;;;;4970578;28;98712;-65
2023/03/01 08:57:04;;;;;;;24.05;12.25;;;;;;;;;;4968846;28;98589;-66
2023/03/01 08:59:35;;;;;;;30.13;12.27;;;;;;;;;;4968419;28;100301;-66
2023/03/01 09:02:01;;;;;;;22.10;12.32;;;;;;;;;;4969952;28;100453;-67
2023/03/01 09:04:28;;;;;;;17.58;11.95;;;;;;;;;;4969689;28;98506;-66
2023/03/01 09:06:54;;;;;;;21.25;11.30;;;;;;;;;;4967174;28;99305;-66
2023/03/01 09:09:21;;;;;;;18.55;10.82;;;;;;;;;;4969321;28;99670;-66
2023/03/01 09:11:49;;;;;;;21.42;11.00;;;;;;;;;;4969240;28;98545;-66
2023/03/01 09:14:16;;;;;;;26.35;11.02;;;;;;;;;;4972648;28;99152;-66
2023/03/01 09:16:42;;;;;;;19.40;11.07;;;;;;;;;;4967948;28;98607;-66
2023/03/01 09:19:09;;;;;;;20.65;8.85;;;;;;;;;;4969091;28;99172;-68
2023/03/01 09:21:35;;;;;;;17.88;9.93;;;;;;;;;;4962397;28;100512;-66
2023/03/01 09:24:14;;;;;;;13.55;8.30;;;;;;;;;;4971021;28;98520;-66
2023/03/01 09:26:40;;;;;;;13.70;7.97;;;;;;;;;;4969383;28;99410;-66
2023/03/01 09:29:09;;;;;;;12.77;7.38;;;;;;;;;;4970590;28;100526;-66
2023/03/01 09:31:35;;;;;;;11.93;6.07;;;;;;;;;;4971225;28;98652;-66
2023/03/01 09:34:02;;;;;;;10.52;7.30;;;;;;;;;;4969319;28;100188;-66
2023/03/01 09:36:28;;;;;;;11.35;7.15;;;;;;;;;;4973277;28;100494;-66
2023/03/01 09:38:55;;;;;;;9.85;6.45;;;;;;;;;;4970582;28;99147;-66
2023/03/01 09:41:40;;;;;;;10.57;6.50;;;;;;;;;;4970251;28;99681;-66
2023/03/01 09:44:15;;;;;;;15.60;6.43;;;;;;;;;;4969671;28;97911;-66
2023/03/01 09:46:43;;;;;;;12.15;6.07;;;;;;;;;;4968853;28;98564;-66
2023/03/01 09:49:20;;;;;;;9.77;6.13;;;;;;;;;;4968996;28;99501;-66
2023/03/01 09:51:58;;;;;;;7.88;5.60;;;;;;;;;;4966959;28;99654;-66
2023/03/01 09:54:24;;;;;;;11.57;5.50;;;;;;;;;;4970327;28;100363;-66
2023/03/01 09:57:01;;;;;;;7.95;4.30;;;;;;;;;;4969215;28;102496;-67
2023/03/01 09:59:44;;;;;;;9.10;5.38;;;;;;;;;;4967838;28;99331;-66
2023/03/01 10:02:31;;;;;;;5.70;4.40;;;;;;;;;;4968578;28;100906;-66
2023/03/01 10:05:05;;;;;;;8.60;4.47;;;;;;;;;;4948758;28;98845;-66
2023/03/01 10:07:50;;;;;;;6.35;4.45;;;;;;;;;;4968116;28;99132;-67
2023/03/01 10:10:27;;;;;;;4.40;3.83;;;;;;;;;;4968116;28;99288;-67
2023/03/01 10:12:53;;;;;;;4.50;4.05;;;;;;;;;;4969764;28;99161;-67
2023/03/01 10:15:25;;;;;;;6.57;4.28;;;;;;;;;;4967915;28;99229;-66
2023/03/01 10:18:00;;;;;;;5.75;3.95;;;;;;;;;;4968505;28;100335;-67
2023/03/01 10:20:30;;;;;;;6.35;4.07;;;;;;;;;;4960518;28;98550;-66
2023/03/01 10:22:56;;;;;;;5.50;4.20;;;;;;;;;;4973289;28;100117;-67
2023/03/01 10:25:36;;;;;;;5.40;3.95;;;;;;;;;;4973112;28;98575;-67
2023/03/01 10:28:07;;;;;;;5.70;3.83;;;;;;;;;;4973091;28;99283;-67
2023/03/01 10:30:43;;;;;;;4.85;3.60;;;;;;;;;;4973249;28;99983;-67
2023/03/01 10:33:30;;;;;;;7.80;3.67;;;;;;;;;;4972801;28;98568;-67
2023/03/01 10:35:57;;;;;;;6.07;3.70;;;;;;;;;;4973589;28;98797;-67
2023/03/01 10:38:23;;;;;;;7.70;3.78;;;;;;;;;;4972165;28;99581;-67
2023/03/01 10:40:54;;;;;;;5.38;3.70;;;;;;;;;;4972479;28;98472;-67
2023/03/01 10:43:21;;;;;;;4.05;3.17;;;;;;;;;;4973430;28;99657;-67
2023/03/01 10:45:47;;;;;;;3.95;2.90;;;;;;;;;;4973042;28;98523;-67
2023/03/01 10:48:23;;;;;;;5.20;3.10;;;;;;;;;;4973206;28;99601;-67
2023/03/01 10:51:09;;;;;;;2.97;2.65;;;;;;;;;;4972946;28;99695;-67
2023/03/01 10:53:37;;;;;;;5.47;2.80;;;;;;;;;;4971299;28;98781;-67
2023/03/01 10:56:08;;;;;;;7.15;2.78;;;;;;;;;;4971782;28;99807;-67
2023/03/01 10:58:35;;;;;;;4.57;2.67;;;;;;;;;;4972498;28;99697;-67
2023/03/01 11:01:17;;;;;;;2.75;2.50;;;;;;;;;;4971152;28;98137;-67
2023/03/01 11:03:43;;;;;;;3.13;2.60;;;;;;;;;;4965025;28;98625;-67
2023/03/01 11:06:12;;;;;;;6.55;3.03;;;;;;;;;;4974739;28;99689;-67
2023/03/01 11:08:43;;;;;;;9.27;2.70;;;;;;;;;;4952527;28;99366;-67
2023/03/01 11:11:12;;;;;;;4.20;2.67;;;;;;;;;;4952643;28;99546;-67
2023/03/01 11:13:48;;;;;;;3.13;2.50;;;;;;;;;;4970813;28;98552;-68
2023/03/01 11:16:14;;;;;;;3.05;2.63;;;;;;;;;;4971522;28;100219;-69
2023/03/01 11:18:41;;;;;;;4.85;2.83;;;;;;;;;;4971150;28;99642;-67
2023/03/01 11:21:15;;;;;;;5.75;2.92;;;;;;;;;;4972650;28;98790;-67
2023/03/01 11:23:42;;;;;;;3.75;2.70;;;;;;;;;;4971897;28;99167;-68
2023/03/01 11:26:09;;;;;;;5.85;2.88;;;;;;;;;;4972426;28;99910;-68
2023/03/01 11:28:39;;;;;;;2.57;2.20;;;;;;;;;;4975545;28;98594;-67
2023/03/01 11:31:11;;;;;;;4.45;2.80;;;;;;;;;;4972144;28;100028;-67
2023/03/01 11:33:49;;;;;;;6.20;2.53;;;;;;;;;;4969764;28;99285;-66
2023/03/01 11:36:29;;;;;;;3.17;2.22;;;;;;;;;;4972737;28;99833;-66
2023/03/01 11:38:56;;;;;;;2.50;2.30;;;;;;;;;;4971734;28;99427;-67
2023/03/01 11:41:28;;;;;;;4.05;2.55;;;;;;;;;;4970796;28;98946;-67
2023/03/01 11:44:00;;;;;;;2.50;2.30;;;;;;;;;;4971618;28;99245;-67
2023/03/01 11:46:26;;;;;;;3.25;2.83;;;;;;;;;;4972339;28;99585;-67
2023/03/01 11:49:12;;;;;;;6.03;2.78;;;;;;;;;;4972441;28;98484;-67
2023/03/01 11:51:38;;;;;;;3.08;2.40;;;;;;;;;;4974332;28;99481;-66
2023/03/01 11:54:25;;;;;;;3.13;2.72;;;;;;;;;;4967584;28;98589;-67
2023/03/01 11:57:00;;;;;;;4.18;2.67;;;;;;;;;;4939478;28;100519;-67
2023/03/01 11:59:39;;;;;;;3.42;2.53;;;;;;;;;;4971461;28;100423;-67
2023/03/01 12:02:24;;;;;;;7.20;3.30;;;;;;;;;;4972562;28;98487;-66
2023/03/01 12:04:59;;;;;;;3.25;2.90;;;;;;;;;;4971169;28;99333;-67
2023/03/01 12:07:39;;;;;;;3.25;2.95;;;;;;;;;;4970439;28;99682;-67
2023/03/01 12:10:05;;;;;;;;;;;;;;;;;;4971524;28;98640;-67
2023/03/01 12:12:46;;;;;;;4.50;3.20;;;;;;;;;;4971779;28;129992;-67
2023/03/01 12:15:19;;;;;;;5.18;3.30;;;;;;;;;;4969522;28;99621;-68
2023/03/01 12:17:59;;;;;;;3.10;2.80;;;;;;;;;;4970903;28;100204;-78
2023/03/01 12:20:44;;;;;;;3.22;2.55;;;;;;;;;;4968777;28;99543;-78
2023/03/01 12:23:28;;;;;;;13.07;3.25;;;;;;;;;;4970114;28;98592;-78
2023/03/01 12:25:55;;;;;;;6.63;2.83;;;;;;;;;;4970989;28;100036;-80
2023/03/01 12:28:24;;;;;;;;;;;;;;;;;;4958101;28;99219;-78
2023/03/01 12:31:05;;;;;;;6.45;2.92;;;;;;;;;;4954308;28;116789;-75
2023/03/01 12:33:54;;;;;;;5.65;2.70;;;;;;;;;;4969565;28;98990;-75
2023/03/01 12:36:26;;;;;;;2.85;2.38;;;;;;;;;;4971832;28;99902;-75
2023/03/01 12:39:11;;;;;;;3.75;2.60;;;;;;;;;;4974959;28;98493;-76
2023/03/01 12:41:38;;;;;;;2.83;2.58;;;;;;;;;;4971121;28;99493;-75
2023/03/01 12:44:15;;;;;;;4.45;2.60;;;;;;;;;;4970970;28;97976;-76
2023/03/01 12:46:44;;;;;;;3.60;2.67;;;;;;;;;;4985589;28;98441;-76
2023/03/01 12:49:16;;;;;;;3.20;2.80;;;;;;;;;;4985414;28;100570;-79
2023/03/01 12:51:47;;;;;;;6.55;3.20;;;;;;;;;;4965210;28;99464;-75
2023/03/01 12:54:27;;;;;;;3.83;3.40;;;;;;;;;;4971301;28;100155;-76
2023/03/01 12:56:53;;;;;;;5.13;3.17;;;;;;;;;;4967052;28;99685;-68
2023/03/01 12:59:26;;;;;;;8.02;3.10;;;;;;;;;;4972644;28;98597;-68
2023/03/01 13:02:09;;;;;;;3.97;3.30;;;;;;;;;;4969499;28;100014;-68
2023/03/01 13:04:39;;;;;;;4.40;2.80;;;;;;;;;;4966885;28;100038;-68
2023/03/01 13:07:24;;;;;;;3.38;3.08;;;;;;;;;;4971558;28;100412;-68
2023/03/01 13:10:11;;;;;;;5.00;2.90;;;;;;;;;;4971452;28;100259;-68
2023/03/01 13:13:02;;;;;;;3.78;3.10;;;;;;;;;;4969787;28;99782;-68
2023/03/01 13:15:29;;;;;;;3.72;3.35;;;;;;;;;;4974970;28;100238;-68
2023/03/01 13:17:58;;;;;;;6.43;3.45;;;;;;;;;;4989787;28;100313;-68
2023/03/01 13:20:27;;;;;;;4.82;3.08;;;;;;;;;;4970879;28;98585;-68
2023/03/01 13:23:01;;;;;;;6.40;3.00;;;;;;;;;;4972966;28;99260;-68
2023/03/01 13:25:27;;;;;;;4.40;3.28;;;;;;;;;;4969819;28;98641;-68
2023/03/01 13:28:26;;;;;;;6.43;3.40;;;;;;;;;;4969950;28;100270;-68
2023/03/01 13:30:52;;;;;;;3.40;3.10;;;;;;;;;;4969624;28;100520;-67
2023/03/01 13:33:27;;;;;;;7.18;3.33;;;;;;;;;;4969735;28;98517;-68
2023/03/01 13:35:54;;;;;;;3.75;3.13;;;;;;;;;;4969348;28;99346;-68
2023/03/01 13:38:37;;;;;;;5.50;3.03;;;;;;;;;;4969644;28;100642;-67
2023/03/01 13:41:04;;;;;;;6.25;3.63;;;;;;;;;;4970169;28;98541;-68
2023/03/01 13:43:32;;;;;;;4.25;3.00;;;;;;;;;;4970425;28;100271;-68
2023/03/01 13:45:59;;;;;;;9.23;3.55;;;;;;;;;;4973360;28;100573;-68
2023/03/01 13:48:27;;;;;;;3.63;2.65;;;;;;;;;;4971394;28;99167;-68
2023/03/01 13:51:04;;;;;;;6.20;3.28;;;;;;;;;;4969469;28;99495;-68
2023/03/01 13:53:33;;;;;;;5.32;3.83;;;;;;;;;;4971178;28;98839;-68
2023/03/01 13:56:02;;;;;;;5.32;3.25;;;;;;;;;;4970593;28;99174;-67
2023/03/01 13:58:30;;;;;;;4.50;2.92;;;;;;;;;;4971073;28;100787;-67
2023/03/01 14:00:56;;;;;;;7.20;3.58;;;;;;;;;;4971644;28;97923;-67
2023/03/01 14:03:23;;;;;;;4.45;3.30;;;;;;;;;;4968506;28;98662;-67
2023/03/01 14:06:01;;;;;;;4.63;3.80;;;;;;;;;;4967786;28;99543;-68
2023/03/01 14:08:40;;;;;;;4.20;3.28;;;;;;;;;;4972856;28;99346;-68
2023/03/01 14:11:25;;;;;;;4.80;3.42;;;;;;;;;;4949489;28;99535;-68
2023/03/01 14:14:10;;;;;;;4.80;3.03;;;;;;;;;;4951362;28;98552;-68
2023/03/01 14:16:43;;;;;;;4.10;3.17;;;;;;;;;;4964804;28;99328;-68
2023/03/01 14:19:21;;;;;;;6.07;2.85;;;;;;;;;;4968880;28;99582;-67
2023/03/01 14:22:19;;;;;;;4.95;3.15;;;;;;;;;;4971635;28;98490;-67
2023/03/01 14:25:08;;;;;;;3.38;3.08;;;;;;;;;;4969490;28;100270;-68
2023/03/01 14:27:39;;;;;;;7.00;3.10;;;;;;;;;;4927955;28;98702;-68
2023/03/01 14:30:05;;;;;;;;;;;;;;;;;;4920165;28;99239;-67
2023/03/01 14:32:32;;;;;;;;;;;;;;;;;;4932622;28;129486;-68
2023/03/01 14:34:58;;;;;;;;;;;;;;;;;;4929899;28;113892;-68
2023/03/01 14:37:25;;;;;;;;;;;;;;;;;;4930440;28;129964;-67
2023/03/01 14:39:51;;;;;;;;;;;;;;;;;;4914283;28;128920;-67
2023/03/01 14:42:17;;;;;;;;;;;;;;;;;;4930401;28;113155;-66
2023/03/01 14:44:43;;;;;;;;;;;;;;;;;;4926147;28;129642;-67
2023/03/01 14:47:10;;;;;;;;;;;;;;;;;;4928713;28;129014;-66